sensor_id;sensor_type;location;lat;lon;timestamp;temperature;humidity
31133;DHT22;17779;50.942;4.026;2023-07-13T00:00:46;17.50;99.90
31133;DHT22;17779;50.942;4.026;2023-07-13T00:03:15;17.50;99.90
31133;DHT22;17779;50.942;4.026;2023-07-13T00:05:56;17.50;99.90
31133;DHT22;17779;50.942;4.026;2023-07-13T00:08:22;17.50;99.90
31133;DHT22;17779;50.942;4.026;2023-07-13T00:10:48;17.50;99.90
31133;DHT22;17779;50.942;4.026;2023-07-13T00:13:22;17.50;99.90
31133;DHT22;17779;50.942;4.026;2023-07-13T00:15:49;17.50;99.90
31133;DHT22;17779;50.942;4.026;2023-07-13T00:18:18;17.60;99.90
31133;DHT22;17779;50.942;4.026;2023-07-13T00:20:43;17.50;99.90
31133;DHT22;17779;50.942;4.026;2023-07-13T00:25:39;17.50;99.90
31133;DHT22;17779;50.942;4.026;2023-07-13T00:28:06;17.50;99.90
31133;DHT22;17779;50.942;4.026;2023-07-13T00:30:32;17.50;99.90
31133;DHT22;17779;50.942;4.026;2023-07-13T00:32:58;17.40;99.90
31133;DHT22;17779;50.942;4.026;2023-07-13T00:35:30;17.40;99.90
31133;DHT22;17779;50.942;4.026;2023-07-13T00:37:57;17.50;99.90
31133;DHT22;17779;50.942;4.026;2023-07-13T00:40:24;17.40;99.90
31133;DHT22;17779;50.942;4.026;2023-07-13T00:42:51;17.40;99.90
31133;DHT22;17779;50.942;4.026;2023-07-13T00:47:45;17.40;99.90
31133;DHT22;17779;50.942;4.026;2023-07-13T00:50:12;17.40;99.90
31133;DHT22;17779;50.942;4.026;2023-07-13T00:52:44;17.40;99.90
31133;DHT22;17779;50.942;4.026;2023-07-13T00:55:10;17.20;99.90
31133;DHT22;17779;50.942;4.026;2023-07-13T00:57:37;17.30;99.90
31133;DHT22;17779;50.942;4.026;2023-07-13T01:00:04;17.30;99.90
31133;DHT22;17779;50.942;4.026;2023-07-13T01:02:39;17.30;99.90
31133;DHT22;17779;50.942;4.026;2023-07-13T01:05:24;17.30;99.90
31133;DHT22;17779;50.942;4.026;2023-07-13T01:10:22;17.40;99.90
31133;DHT22;17779;50.942;4.026;2023-07-13T01:12:47;17.30;99.90
31133;DHT22;17779;50.942;4.026;2023-07-13T01:17:59;17.10;99.90
31133;DHT22;17779;50.942;4.026;2023-07-13T01:20:26;17.20;99.90
31133;DHT22;17779;50.942;4.026;2023-07-13T01:22:52;17.10;99.90
31133;DHT22;17779;50.942;4.026;2023-07-13T01:25:20;17.00;99.90
31133;DHT22;17779;50.942;4.026;2023-07-13T01:27:47;17.00;99.90
31133;DHT22;17779;50.942;4.026;2023-07-13T01:30:15;16.90;99.90
31133;DHT22;17779;50.942;4.026;2023-07-13T01:32:41;17.00;99.90
31133;DHT22;17779;50.942;4.026;2023-07-13T01:35:07;17.10;99.90
31133;DHT22;17779;50.942;4.026;2023-07-13T01:37:33;17.20;99.90
31133;DHT22;17779;50.942;4.026;2023-07-13T01:40:03;17.10;99.90
31133;DHT22;17779;50.942;4.026;2023-07-13T01:42:29;17.10;99.90
31133;DHT22;17779;50.942;4.026;2023-07-13T01:45:01;17.00;99.90
31133;DHT22;17779;50.942;4.026;2023-07-13T01:47:29;17.10;99.90
31133;DHT22;17779;50.942;4.026;2023-07-13T01:49:57;16.90;99.90
31133;DHT22;17779;50.942;4.026;2023-07-13T01:52:24;17.00;99.90
31133;DHT22;17779;50.942;4.026;2023-07-13T01:57:21;17.00;99.90
31133;DHT22;17779;50.942;4.026;2023-07-13T01:59:47;16.80;99.90
31133;DHT22;17779;50.942;4.026;2023-07-13T02:02:14;16.70;99.90
31133;DHT22;17779;50.942;4.026;2023-07-13T02:04:42;16.70;99.90
31133;DHT22;17779;50.942;4.026;2023-07-13T02:07:08;16.80;99.90
31133;DHT22;17779;50.942;4.026;2023-07-13T02:09:37;16.80;99.90
31133;DHT22;17779;50.942;4.026;2023-07-13T02:12:03;16.90;99.90
31133;DHT22;17779;50.942;4.026;2023-07-13T02:14:30;16.90;99.90
31133;DHT22;17779;50.942;4.026;2023-07-13T02:16:56;16.80;99.90
31133;DHT22;17779;50.942;4.026;2023-07-13T02:19:22;16.80;99.90
31133;DHT22;17779;50.942;4.026;2023-07-13T02:21:50;16.70;99.90
31133;DHT22;17779;50.942;4.026;2023-07-13T02:24:18;16.50;99.90
31133;DHT22;17779;50.942;4.026;2023-07-13T02:26:46;16.40;99.90
31133;DHT22;17779;50.942;4.026;2023-07-13T02:29:12;16.20;99.90
31133;DHT22;17779;50.942;4.026;2023-07-13T02:34:07;16.00;99.90
31133;DHT22;17779;50.942;4.026;2023-07-13T02:36:35;15.90;99.90
31133;DHT22;17779;50.942;4.026;2023-07-13T02:39:02;15.90;99.90
31133;DHT22;17779;50.942;4.026;2023-07-13T02:46:29;15.90;99.90
31133;DHT22;17779;50.942;4.026;2023-07-13T02:48:57;15.90;99.90
31133;DHT22;17779;50.942;4.026;2023-07-13T02:51:23;16.00;99.90
31133;DHT22;17779;50.942;4.026;2023-07-13T02:53:48;16.00;99.90
31133;DHT22;17779;50.942;4.026;2023-07-13T02:58:44;15.70;99.90
31133;DHT22;17779;50.942;4.026;2023-07-13T03:01:10;15.80;99.90
31133;DHT22;17779;50.942;4.026;2023-07-13T03:03:39;15.80;99.90
31133;DHT22;17779;50.942;4.026;2023-07-13T03:06:06;15.90;99.90
31133;DHT22;17779;50.942;4.026;2023-07-13T03:08:34;16.00;99.90
31133;DHT22;17779;50.942;4.026;2023-07-13T03:11:06;15.80;99.90
31133;DHT22;17779;50.942;4.026;2023-07-13T03:13:32;15.70;99.90
31133;DHT22;17779;50.942;4.026;2023-07-13T03:16:00;15.60;99.90
31133;DHT22;17779;50.942;4.026;2023-07-13T03:18:28;15.60;99.90
31133;DHT22;17779;50.942;4.026;2023-07-13T03:20:54;15.70;99.90
31133;DHT22;17779;50.942;4.026;2023-07-13T03:23:21;15.60;99.90
31133;DHT22;17779;50.942;4.026;2023-07-13T03:25:48;15.70;99.90
31133;DHT22;17779;50.942;4.026;2023-07-13T03:28:15;15.80;99.90
31133;DHT22;17779;50.942;4.026;2023-07-13T03:30:42;16.00;99.90
31133;DHT22;17779;50.942;4.026;2023-07-13T03:33:10;16.00;99.90
31133;DHT22;17779;50.942;4.026;2023-07-13T03:35:39;16.00;99.90
31133;DHT22;17779;50.942;4.026;2023-07-13T03:38:05;15.80;99.90
31133;DHT22;17779;50.942;4.026;2023-07-13T03:40:31;15.80;99.90
31133;DHT22;17779;50.942;4.026;2023-07-13T03:42:56;15.80;99.90
31133;DHT22;17779;50.942;4.026;2023-07-13T03:45:22;15.70;99.90
31133;DHT22;17779;50.942;4.026;2023-07-13T03:47:49;15.90;99.90
31133;DHT22;17779;50.942;4.026;2023-07-13T03:50:16;16.00;99.90
31133;DHT22;17779;50.942;4.026;2023-07-13T03:52:42;16.00;99.90
31133;DHT22;17779;50.942;4.026;2023-07-13T03:55:07;15.90;99.90
31133;DHT22;17779;50.942;4.026;2023-07-13T03:57:36;16.00;99.90
31133;DHT22;17779;50.942;4.026;2023-07-13T04:00:04;16.10;99.90
31133;DHT22;17779;50.942;4.026;2023-07-13T04:02:31;16.20;99.90
31133;DHT22;17779;50.942;4.026;2023-07-13T04:04:56;16.30;99.90
31133;DHT22;17779;50.942;4.026;2023-07-13T04:07:23;16.50;99.90
31133;DHT22;17779;50.942;4.026;2023-07-13T04:09:51;16.40;99.90
31133;DHT22;17779;50.942;4.026;2023-07-13T04:12:16;16.30;99.90
31133;DHT22;17779;50.942;4.026;2023-07-13T04:14:43;16.20;99.90
31133;DHT22;17779;50.942;4.026;2023-07-13T04:17:11;16.20;99.90
31133;DHT22;17779;50.942;4.026;2023-07-13T04:19:37;16.40;99.90
31133;DHT22;17779;50.942;4.026;2023-07-13T04:22:03;16.40;99.90
31133;DHT22;17779;50.942;4.026;2023-07-13T04:24:28;16.30;99.90
31133;DHT22;17779;50.942;4.026;2023-07-13T04:26:56;16.20;99.90
31133;DHT22;17779;50.942;4.026;2023-07-13T04:29:25;16.10;99.90
31133;DHT22;17779;50.942;4.026;2023-07-13T04:31:51;16.10;99.90
31133;DHT22;17779;50.942;4.026;2023-07-13T04:34:19;16.00;99.90
31133;DHT22;17779;50.942;4.026;2023-07-13T04:36:44;16.00;99.90
31133;DHT22;17779;50.942;4.026;2023-07-13T04:39:10;16.00;99.90
31133;DHT22;17779;50.942;4.026;2023-07-13T04:41:36;16.00;99.90
31133;DHT22;17779;50.942;4.026;2023-07-13T04:44:01;16.10;99.90
31133;DHT22;17779;50.942;4.026;2023-07-13T04:46:28;16.10;99.90
31133;DHT22;17779;50.942;4.026;2023-07-13T04:48:56;16.30;99.90
31133;DHT22;17779;50.942;4.026;2023-07-13T04:51:26;16.10;99.90
31133;DHT22;17779;50.942;4.026;2023-07-13T04:53:52;16.10;99.90
31133;DHT22;17779;50.942;4.026;2023-07-13T04:56:18;16.10;99.90
31133;DHT22;17779;50.942;4.026;2023-07-13T04:58:45;16.20;99.90
31133;DHT22;17779;50.942;4.026;2023-07-13T05:01:16;16.30;99.90
31133;DHT22;17779;50.942;4.026;2023-07-13T05:03:45;16.40;99.90
31133;DHT22;17779;50.942;4.026;2023-07-13T05:06:11;16.30;99.90
31133;DHT22;17779;50.942;4.026;2023-07-13T05:08:42;16.30;99.90
31133;DHT22;17779;50.942;4.026;2023-07-13T05:11:09;16.50;99.90
31133;DHT22;17779;50.942;4.026;2023-07-13T05:13:35;16.60;99.90
31133;DHT22;17779;50.942;4.026;2023-07-13T05:16:04;16.70;99.90
31133;DHT22;17779;50.942;4.026;2023-07-13T05:18:32;16.80;99.90
31133;DHT22;17779;50.942;4.026;2023-07-13T05:20:59;16.80;99.90
31133;DHT22;17779;50.942;4.026;2023-07-13T05:23:26;16.70;99.90
31133;DHT22;17779;50.942;4.026;2023-07-13T05:25:53;16.90;99.90
31133;DHT22;17779;50.942;4.026;2023-07-13T05:28:20;16.80;99.90
31133;DHT22;17779;50.942;4.026;2023-07-13T05:30:47;16.80;99.90
31133;DHT22;17779;50.942;4.026;2023-07-13T05:33:16;16.90;99.90
31133;DHT22;17779;50.942;4.026;2023-07-13T05:35:45;17.00;99.90
31133;DHT22;17779;50.942;4.026;2023-07-13T05:38:12;17.00;99.90
31133;DHT22;17779;50.942;4.026;2023-07-13T05:40:37;17.10;99.90
31133;DHT22;17779;50.942;4.026;2023-07-13T05:43:03;17.20;99.90
31133;DHT22;17779;50.942;4.026;2023-07-13T05:45:30;17.20;99.90
31133;DHT22;17779;50.942;4.026;2023-07-13T05:47:57;17.30;99.90
31133;DHT22;17779;50.942;4.026;2023-07-13T05:50:23;17.40;99.90
31133;DHT22;17779;50.942;4.026;2023-07-13T05:52:51;17.30;99.90
31133;DHT22;17779;50.942;4.026;2023-07-13T05:55:17;17.70;99.90
31133;DHT22;17779;50.942;4.026;2023-07-13T05:57:43;17.80;99.90
31133;DHT22;17779;50.942;4.026;2023-07-13T06:00:09;17.90;99.90
31133;DHT22;17779;50.942;4.026;2023-07-13T06:02:35;18.00;99.90
31133;DHT22;17779;50.942;4.026;2023-07-13T06:05:02;18.10;99.90
31133;DHT22;17779;50.942;4.026;2023-07-13T06:07:28;18.00;99.90
31133;DHT22;17779;50.942;4.026;2023-07-13T06:09:56;18.10;99.90
31133;DHT22;17779;50.942;4.026;2023-07-13T06:12:22;18.20;99.90
31133;DHT22;17779;50.942;4.026;2023-07-13T06:14:48;18.20;99.90
31133;DHT22;17779;50.942;4.026;2023-07-13T06:17:14;18.20;99.90
31133;DHT22;17779;50.942;4.026;2023-07-13T06:19:42;18.50;99.90
31133;DHT22;17779;50.942;4.026;2023-07-13T06:22:07;18.60;99.90
31133;DHT22;17779;50.942;4.026;2023-07-13T06:24:33;18.40;99.90
31133;DHT22;17779;50.942;4.026;2023-07-13T06:26:59;18.40;99.90
31133;DHT22;17779;50.942;4.026;2023-07-13T06:29:24;18.60;99.90
31133;DHT22;17779;50.942;4.026;2023-07-13T06:31:50;18.90;99.90
31133;DHT22;17779;50.942;4.026;2023-07-13T06:34:15;18.80;99.90
31133;DHT22;17779;50.942;4.026;2023-07-13T06:36:41;18.80;99.90
31133;DHT22;17779;50.942;4.026;2023-07-13T06:39:07;18.90;99.90
31133;DHT22;17779;50.942;4.026;2023-07-13T06:41:33;19.00;99.90
31133;DHT22;17779;50.942;4.026;2023-07-13T06:44:00;19.30;99.90
31133;DHT22;17779;50.942;4.026;2023-07-13T06:46:25;19.40;99.90
31133;DHT22;17779;50.942;4.026;2023-07-13T06:48:51;19.70;99.90
31133;DHT22;17779;50.942;4.026;2023-07-13T06:51:16;19.70;99.90
31133;DHT22;17779;50.942;4.026;2023-07-13T06:53:42;20.10;99.90
31133;DHT22;17779;50.942;4.026;2023-07-13T06:56:09;20.50;99.90
31133;DHT22;17779;50.942;4.026;2023-07-13T06:58:36;20.50;99.90
31133;DHT22;17779;50.942;4.026;2023-07-13T07:01:02;20.70;99.90
31133;DHT22;17779;50.942;4.026;2023-07-13T07:03:27;20.30;99.90
31133;DHT22;17779;50.942;4.026;2023-07-13T07:05:53;20.60;99.90
31133;DHT22;17779;50.942;4.026;2023-07-13T07:08:19;20.70;99.90
31133;DHT22;17779;50.942;4.026;2023-07-13T07:10:44;21.20;99.90
31133;DHT22;17779;50.942;4.026;2023-07-13T07:13:10;21.30;99.90
31133;DHT22;17779;50.942;4.026;2023-07-13T07:15:36;21.90;99.90
31133;DHT22;17779;50.942;4.026;2023-07-13T07:18:02;22.40;99.90
31133;DHT22;17779;50.942;4.026;2023-07-13T07:20:28;22.30;99.90
31133;DHT22;17779;50.942;4.026;2023-07-13T07:22:53;22.60;99.90
31133;DHT22;17779;50.942;4.026;2023-07-13T07:25:19;23.80;99.90
31133;DHT22;17779;50.942;4.026;2023-07-13T07:27:45;25.10;99.90
31133;DHT22;17779;50.942;4.026;2023-07-13T07:30:11;25.20;99.90
31133;DHT22;17779;50.942;4.026;2023-07-13T07:32:36;25.40;99.90
31133;DHT22;17779;50.942;4.026;2023-07-13T07:35:02;25.40;99.90
31133;DHT22;17779;50.942;4.026;2023-07-13T07:37:28;26.20;99.90
31133;DHT22;17779;50.942;4.026;2023-07-13T07:39:53;25.70;99.90
31133;DHT22;17779;50.942;4.026;2023-07-13T07:42:19;25.00;99.90
31133;DHT22;17779;50.942;4.026;2023-07-13T07:44:45;25.20;99.90
31133;DHT22;17779;50.942;4.026;2023-07-13T07:47:10;25.30;99.90
31133;DHT22;17779;50.942;4.026;2023-07-13T07:49:36;24.80;99.90
31133;DHT22;17779;50.942;4.026;2023-07-13T07:52:02;24.50;99.90
31133;DHT22;17779;50.942;4.026;2023-07-13T07:54:28;25.10;99.90
31133;DHT22;17779;50.942;4.026;2023-07-13T07:56:53;24.50;99.90
31133;DHT22;17779;50.942;4.026;2023-07-13T07:59:19;24.60;99.90
31133;DHT22;17779;50.942;4.026;2023-07-13T08:01:45;25.40;99.90
31133;DHT22;17779;50.942;4.026;2023-07-13T08:04:13;25.80;99.90
31133;DHT22;17779;50.942;4.026;2023-07-13T08:06:38;25.50;99.90
31133;DHT22;17779;50.942;4.026;2023-07-13T08:09:04;25.90;99.90
31133;DHT22;17779;50.942;4.026;2023-07-13T08:11:30;25.70;99.90
31133;DHT22;17779;50.942;4.026;2023-07-13T08:13:55;25.50;99.90
31133;DHT22;17779;50.942;4.026;2023-07-13T08:16:21;25.60;99.90
31133;DHT22;17779;50.942;4.026;2023-07-13T08:18:47;25.10;99.90
31133;DHT22;17779;50.942;4.026;2023-07-13T08:21:13;23.90;99.90
31133;DHT22;17779;50.942;4.026;2023-07-13T08:23:38;25.10;99.90
31133;DHT22;17779;50.942;4.026;2023-07-13T08:26:04;25.20;99.90
31133;DHT22;17779;50.942;4.026;2023-07-13T08:28:30;24.80;99.90
31133;DHT22;17779;50.942;4.026;2023-07-13T08:31:00;24.60;99.90
31133;DHT22;17779;50.942;4.026;2023-07-13T08:33:25;25.90;99.90
31133;DHT22;17779;50.942;4.026;2023-07-13T08:35:52;26.30;99.90
31133;DHT22;17779;50.942;4.026;2023-07-13T08:38:18;26.80;99.90
31133;DHT22;17779;50.942;4.026;2023-07-13T08:40:44;27.80;99.90
31133;DHT22;17779;50.942;4.026;2023-07-13T08:43:13;26.80;99.90
31133;DHT22;17779;50.942;4.026;2023-07-13T08:45:45;26.00;99.90
31133;DHT22;17779;50.942;4.026;2023-07-13T08:48:18;25.30;99.90
31133;DHT22;17779;50.942;4.026;2023-07-13T08:50:51;26.30;99.90
31133;DHT22;17779;50.942;4.026;2023-07-13T08:53:17;27.10;99.90
31133;DHT22;17779;50.942;4.026;2023-07-13T08:55:44;26.60;99.90
31133;DHT22;17779;50.942;4.026;2023-07-13T08:58:13;28.00;99.90
31133;DHT22;17779;50.942;4.026;2023-07-13T09:00:59;28.00;99.90
31133;DHT22;17779;50.942;4.026;2023-07-13T09:03:30;27.70;99.90
31133;DHT22;17779;50.942;4.026;2023-07-13T09:05:58;27.00;99.90
31133;DHT22;17779;50.942;4.026;2023-07-13T09:13:49;25.20;99.90
31133;DHT22;17779;50.942;4.026;2023-07-13T09:16:17;25.80;99.90
31133;DHT22;17779;50.942;4.026;2023-07-13T09:18:45;25.40;99.90
31133;DHT22;17779;50.942;4.026;2023-07-13T09:21:13;25.80;99.90
31133;DHT22;17779;50.942;4.026;2023-07-13T09:23:39;26.80;99.90
31133;DHT22;17779;50.942;4.026;2023-07-13T09:28:39;26.90;99.90
31133;DHT22;17779;50.942;4.026;2023-07-13T09:31:06;26.90;99.90
31133;DHT22;17779;50.942;4.026;2023-07-13T09:33:33;28.60;99.90
31133;DHT22;17779;50.942;4.026;2023-07-13T09:36:00;29.10;99.90
31133;DHT22;17779;50.942;4.026;2023-07-13T09:38:28;30.10;99.50
31133;DHT22;17779;50.942;4.026;2023-07-13T09:43:24;31.80;95.80
31133;DHT22;17779;50.942;4.026;2023-07-13T09:45:49;31.30;95.00
31133;DHT22;17779;50.942;4.026;2023-07-13T09:48:16;30.90;94.80
31133;DHT22;17779;50.942;4.026;2023-07-13T09:50:42;31.30;94.10
31133;DHT22;17779;50.942;4.026;2023-07-13T09:53:12;31.90;92.50
31133;DHT22;17779;50.942;4.026;2023-07-13T09:55:38;30.40;93.10
31133;DHT22;17779;50.942;4.026;2023-07-13T09:58:11;30.30;93.70
31133;DHT22;17779;50.942;4.026;2023-07-13T10:00:38;29.10;95.00
31133;DHT22;17779;50.942;4.026;2023-07-13T10:05:41;28.40;95.70
31133;DHT22;17779;50.942;4.026;2023-07-13T10:08:14;29.30;95.20
31133;DHT22;17779;50.942;4.026;2023-07-13T10:10:40;30.70;93.90
31133;DHT22;17779;50.942;4.026;2023-07-13T10:13:12;29.90;92.80
31133;DHT22;17779;50.942;4.026;2023-07-13T10:15:46;29.00;94.50
31133;DHT22;17779;50.942;4.026;2023-07-13T10:18:15;30.10;93.50
31133;DHT22;17779;50.942;4.026;2023-07-13T10:20:41;29.70;93.20
31133;DHT22;17779;50.942;4.026;2023-07-13T10:23:10;28.90;93.70
31133;DHT22;17779;50.942;4.026;2023-07-13T10:25:39;28.20;94.30
31133;DHT22;17779;50.942;4.026;2023-07-13T10:30:35;28.50;95.20
31133;DHT22;17779;50.942;4.026;2023-07-13T10:33:08;29.50;94.00
31133;DHT22;17779;50.942;4.026;2023-07-13T10:35:36;30.00;92.90
31133;DHT22;17779;50.942;4.026;2023-07-13T10:38:07;31.80;91.60
31133;DHT22;17779;50.942;4.026;2023-07-13T10:40:36;31.20;90.50
31133;DHT22;17779;50.942;4.026;2023-07-13T10:43:06;31.80;87.30
31133;DHT22;17779;50.942;4.026;2023-07-13T10:45:34;31.50;87.40
31133;DHT22;17779;50.942;4.026;2023-07-13T10:48:01;31.10;86.00
31133;DHT22;17779;50.942;4.026;2023-07-13T10:50:27;30.20;88.80
31133;DHT22;17779;50.942;4.026;2023-07-13T10:53:18;30.50;90.70
31133;DHT22;17779;50.942;4.026;2023-07-13T10:58:14;31.20;88.80
31133;DHT22;17779;50.942;4.026;2023-07-13T11:00:46;30.70;88.90
31133;DHT22;17779;50.942;4.026;2023-07-13T11:03:14;31.10;88.00
31133;DHT22;17779;50.942;4.026;2023-07-13T11:05:40;30.00;88.00
31133;DHT22;17779;50.942;4.026;2023-07-13T11:08:13;29.60;90.30
31133;DHT22;17779;50.942;4.026;2023-07-13T11:10:52;30.10;90.30
31133;DHT22;17779;50.942;4.026;2023-07-13T11:16:11;28.70;91.30
31133;DHT22;17779;50.942;4.026;2023-07-13T11:18:37;28.50;91.00
31133;DHT22;17779;50.942;4.026;2023-07-13T11:21:16;28.20;91.10
31133;DHT22;17779;50.942;4.026;2023-07-13T11:23:42;27.50;90.20
31133;DHT22;17779;50.942;4.026;2023-07-13T11:28:54;26.10;94.90
31133;DHT22;17779;50.942;4.026;2023-07-13T11:31:20;25.60;99.20
31133;DHT22;17779;50.942;4.026;2023-07-13T11:33:52;25.30;99.90
31133;DHT22;17779;50.942;4.026;2023-07-13T11:36:19;24.50;99.90
31133;DHT22;17779;50.942;4.026;2023-07-13T11:41:50;22.00;99.90
31133;DHT22;17779;50.942;4.026;2023-07-13T11:44:13;20.90;99.90
31133;DHT22;17779;50.942;4.026;2023-07-13T11:46:43;20.00;99.90
31133;DHT22;17779;50.942;4.026;2023-07-13T11:49:11;19.70;99.90
31133;DHT22;17779;50.942;4.026;2023-07-13T11:51:38;19.60;99.90
31133;DHT22;17779;50.942;4.026;2023-07-13T11:57:01;19.70;99.90
31133;DHT22;17779;50.942;4.026;2023-07-13T11:59:27;19.80;99.90
31133;DHT22;17779;50.942;4.026;2023-07-13T12:01:54;20.00;99.90
31133;DHT22;17779;50.942;4.026;2023-07-13T12:04:24;20.00;99.90
31133;DHT22;17779;50.942;4.026;2023-07-13T12:06:55;20.20;99.90
31133;DHT22;17779;50.942;4.026;2023-07-13T12:09:21;20.60;99.90
31133;DHT22;17779;50.942;4.026;2023-07-13T12:11:50;21.10;99.90
31133;DHT22;17779;50.942;4.026;2023-07-13T12:14:16;21.50;99.90
31133;DHT22;17779;50.942;4.026;2023-07-13T12:16:42;21.70;99.90
31133;DHT22;17779;50.942;4.026;2023-07-13T12:19:22;21.90;99.90
31133;DHT22;17779;50.942;4.026;2023-07-13T12:21:48;22.00;99.90
31133;DHT22;17779;50.942;4.026;2023-07-13T12:24:15;21.80;99.90
31133;DHT22;17779;50.942;4.026;2023-07-13T12:26:41;22.00;99.90
31133;DHT22;17779;50.942;4.026;2023-07-13T12:29:06;22.10;99.90
31133;DHT22;17779;50.942;4.026;2023-07-13T12:34:02;22.30;99.90
31133;DHT22;17779;50.942;4.026;2023-07-13T12:36:33;22.50;99.90
31133;DHT22;17779;50.942;4.026;2023-07-13T12:39:00;22.80;99.90
31133;DHT22;17779;50.942;4.026;2023-07-13T12:41:29;22.60;99.90
31133;DHT22;17779;50.942;4.026;2023-07-13T12:43:55;22.60;99.90
31133;DHT22;17779;50.942;4.026;2023-07-13T12:46:23;23.00;99.90
31133;DHT22;17779;50.942;4.026;2023-07-13T12:48:53;23.30;99.90
31133;DHT22;17779;50.942;4.026;2023-07-13T12:51:24;24.20;99.90
31133;DHT22;17779;50.942;4.026;2023-07-13T12:53:51;24.40;99.90
31133;DHT22;17779;50.942;4.026;2023-07-13T12:56:23;24.30;99.90
31133;DHT22;17779;50.942;4.026;2023-07-13T12:58:49;24.60;99.90
31133;DHT22;17779;50.942;4.026;2023-07-13T13:01:22;24.00;99.90
31133;DHT22;17779;50.942;4.026;2023-07-13T13:03:49;24.30;99.90
31133;DHT22;17779;50.942;4.026;2023-07-13T13:08:48;23.90;99.90
31133;DHT22;17779;50.942;4.026;2023-07-13T13:11:15;23.50;99.90
31133;DHT22;17779;50.942;4.026;2023-07-13T13:13:43;23.60;99.90
31133;DHT22;17779;50.942;4.026;2023-07-13T13:16:10;23.50;99.90
31133;DHT22;17779;50.942;4.026;2023-07-13T13:18:36;24.00;99.90
31133;DHT22;17779;50.942;4.026;2023-07-13T13:21:02;24.00;99.90
31133;DHT22;17779;50.942;4.026;2023-07-13T13:23:28;23.90;99.90
31133;DHT22;17779;50.942;4.026;2023-07-13T13:25:54;24.40;99.90
31133;DHT22;17779;50.942;4.026;2023-07-13T13:28:20;24.80;99.90
31133;DHT22;17779;50.942;4.026;2023-07-13T13:30:47;24.60;99.90
31133;DHT22;17779;50.942;4.026;2023-07-13T13:33:14;24.60;99.90
31133;DHT22;17779;50.942;4.026;2023-07-13T13:35:40;24.70;99.90
31133;DHT22;17779;50.942;4.026;2023-07-13T13:38:25;24.80;99.90
31133;DHT22;17779;50.942;4.026;2023-07-13T13:40:50;24.80;99.90
31133;DHT22;17779;50.942;4.026;2023-07-13T13:45:43;24.80;99.90
31133;DHT22;17779;50.942;4.026;2023-07-13T13:48:15;24.60;99.90
31133;DHT22;17779;50.942;4.026;2023-07-13T13:50:42;24.70;99.90
31133;DHT22;17779;50.942;4.026;2023-07-13T13:53:09;24.70;99.90
31133;DHT22;17779;50.942;4.026;2023-07-13T13:55:35;24.20;99.90
31133;DHT22;17779;50.942;4.026;2023-07-13T13:58:01;24.20;99.90
31133;DHT22;17779;50.942;4.026;2023-07-13T14:00:26;24.30;99.90
31133;DHT22;17779;50.942;4.026;2023-07-13T14:02:52;23.70;99.90
31133;DHT22;17779;50.942;4.026;2023-07-13T14:05:22;23.70;99.90
31133;DHT22;17779;50.942;4.026;2023-07-13T14:07:47;23.50;99.90
31133;DHT22;17779;50.942;4.026;2023-07-13T14:10:15;23.80;99.90
31133;DHT22;17779;50.942;4.026;2023-07-13T14:12:44;24.50;99.90
31133;DHT22;17779;50.942;4.026;2023-07-13T14:15:20;25.30;99.90
31133;DHT22;17779;50.942;4.026;2023-07-13T14:17:46;25.80;99.90
31133;DHT22;17779;50.942;4.026;2023-07-13T14:20:15;25.50;99.90
31133;DHT22;17779;50.942;4.026;2023-07-13T14:22:41;25.10;99.90
31133;DHT22;17779;50.942;4.026;2023-07-13T14:25:13;25.30;99.90
31133;DHT22;17779;50.942;4.026;2023-07-13T14:27:40;25.70;99.90
31133;DHT22;17779;50.942;4.026;2023-07-13T14:30:23;25.50;99.90
31133;DHT22;17779;50.942;4.026;2023-07-13T14:32:49;25.20;99.90
31133;DHT22;17779;50.942;4.026;2023-07-13T14:35:15;25.50;99.90
31133;DHT22;17779;50.942;4.026;2023-07-13T14:37:41;25.60;99.90
31133;DHT22;17779;50.942;4.026;2023-07-13T14:40:17;25.90;99.90
31133;DHT22;17779;50.942;4.026;2023-07-13T14:42:44;26.10;99.90
31133;DHT22;17779;50.942;4.026;2023-07-13T14:45:16;25.90;99.90
31133;DHT22;17779;50.942;4.026;2023-07-13T14:47:42;26.10;99.90
31133;DHT22;17779;50.942;4.026;2023-07-13T14:50:13;26.00;99.90
31133;DHT22;17779;50.942;4.026;2023-07-13T14:52:39;25.50;99.90
31133;DHT22;17779;50.942;4.026;2023-07-13T14:55:08;25.00;99.90
31133;DHT22;17779;50.942;4.026;2023-07-13T14:57:34;24.90;99.90
31133;DHT22;17779;50.942;4.026;2023-07-13T14:59:59;24.80;99.90
31133;DHT22;17779;50.942;4.026;2023-07-13T15:02:32;24.70;99.90
31133;DHT22;17779;50.942;4.026;2023-07-13T15:04:59;25.00;99.90
31133;DHT22;17779;50.942;4.026;2023-07-13T15:07:24;25.10;99.90
31133;DHT22;17779;50.942;4.026;2023-07-13T15:09:50;25.50;99.90
31133;DHT22;17779;50.942;4.026;2023-07-13T15:12:16;25.60;99.90
31133;DHT22;17779;50.942;4.026;2023-07-13T15:14:42;25.50;99.90
31133;DHT22;17779;50.942;4.026;2023-07-13T15:17:32;25.50;99.90
31133;DHT22;17779;50.942;4.026;2023-07-13T15:20:06;25.60;99.90
31133;DHT22;17779;50.942;4.026;2023-07-13T15:22:36;25.70;99.90
31133;DHT22;17779;50.942;4.026;2023-07-13T15:25:02;25.70;99.90
31133;DHT22;17779;50.942;4.026;2023-07-13T15:27:29;25.30;99.90
31133;DHT22;17779;50.942;4.026;2023-07-13T15:29:54;25.30;99.90
31133;DHT22;17779;50.942;4.026;2023-07-13T15:32:20;25.30;99.90
31133;DHT22;17779;50.942;4.026;2023-07-13T15:34:46;25.40;99.90
31133;DHT22;17779;50.942;4.026;2023-07-13T15:37:15;25.30;99.90
31133;DHT22;17779;50.942;4.026;2023-07-13T15:39:41;25.30;99.70
31133;DHT22;17779;50.942;4.026;2023-07-13T15:42:18;25.40;99.80
31133;DHT22;17779;50.942;4.026;2023-07-13T15:44:44;25.50;99.20
31133;DHT22;17779;50.942;4.026;2023-07-13T15:47:11;25.40;99.30
31133;DHT22;17779;50.942;4.026;2023-07-13T15:49:38;25.40;99.90
31133;DHT22;17779;50.942;4.026;2023-07-13T15:52:04;25.30;99.90
31133;DHT22;17779;50.942;4.026;2023-07-13T15:54:29;25.50;99.90
31133;DHT22;17779;50.942;4.026;2023-07-13T15:56:55;25.40;99.80
31133;DHT22;17779;50.942;4.026;2023-07-13T15:59:25;25.40;99.60
31133;DHT22;17779;50.942;4.026;2023-07-13T16:01:51;25.60;99.00
31133;DHT22;17779;50.942;4.026;2023-07-13T16:04:16;25.30;99.80
31133;DHT22;17779;50.942;4.026;2023-07-13T16:06:44;25.10;99.90
31133;DHT22;17779;50.942;4.026;2023-07-13T16:09:17;25.10;99.90
31133;DHT22;17779;50.942;4.026;2023-07-13T16:11:43;25.20;99.70
31133;DHT22;17779;50.942;4.026;2023-07-13T16:14:11;25.10;99.90
31133;DHT22;17779;50.942;4.026;2023-07-13T16:16:42;25.10;99.90
31133;DHT22;17779;50.942;4.026;2023-07-13T16:19:08;25.20;99.90
31133;DHT22;17779;50.942;4.026;2023-07-13T16:21:39;25.50;99.90
31133;DHT22;17779;50.942;4.026;2023-07-13T16:24:08;25.30;99.90
31133;DHT22;17779;50.942;4.026;2023-07-13T16:26:37;25.40;98.50
31133;DHT22;17779;50.942;4.026;2023-07-13T16:29:17;25.30;98.70
31133;DHT22;17779;50.942;4.026;2023-07-13T16:31:56;25.10;98.70